Naples, Florida
Current Conditions -  °F | °C
As of 6:53 AM on Saturday 25 Oct 2014 (Local Time) from KAPF Reporting Station
Clear Clear  
Wind Chill: 66°   Ceiling: Unl
Heat Index: 66°   Visibility: 10mi
Dew Point: 58°   Wind: 10mph
Humidity: 75%   Direction: 10°N
Pressure: 29.93"   Gusts: NA
Location:  26.14°N, 81.79°W
Report Text: KAPF 251053Z 01009KT 10SM CLR 19/14 A2993 RMK AO2 SLP135 T01890144
Loading
Personal Weather Stations






























Interactive Weather Map
Tropical Storm Tracking
New forecast layout! Learn more

10-Day Weather Forecast

Advertisements
Track Severe Weather on mobile